createdAt,value
2022-09-11T00:01:33.572Z,101032.16
2022-09-11T00:04:01.703Z,101043.72
2022-09-11T00:06:30.966Z,101044.13
2022-09-11T00:09:03.558Z,101036.28
2022-09-11T00:11:40.466Z,101047.31
2022-09-11T00:14:12.200Z,101040.69
2022-09-11T00:16:43.123Z,101045.13
2022-09-11T00:19:17.470Z,101048.25
2022-09-11T00:21:45.449Z,101052.28
2022-09-11T00:24:12.685Z,101049.09
2022-09-11T00:26:41.138Z,101054.97
2022-09-11T00:29:09.203Z,101046.28
2022-09-11T00:31:36.354Z,101044.69
2022-09-11T00:34:03.339Z,101056.25
2022-09-11T00:36:31.754Z,101048.53
2022-09-11T00:38:59.936Z,101051.38
2022-09-11T00:41:31.931Z,101042.41
2022-09-11T00:44:13.629Z,101052.81
2022-09-11T00:46:56.411Z,101059.22
2022-09-11T00:49:46.372Z,101061.09
2022-09-11T00:52:19.995Z,101060.94
2022-09-11T00:54:59.910Z,101064.53
2022-09-11T00:57:34.975Z,101060.94
2022-09-11T01:00:03.997Z,101061.09
2022-09-11T01:02:34.580Z,101066.78
2022-09-11T01:05:01.953Z,101057.06
2022-09-11T01:07:30.575Z,101062.66
2022-09-11T01:09:59.208Z,101068.06
2022-09-11T01:12:53.825Z,101074.91
2022-09-11T01:16:05.868Z,101065.44
2022-09-11T01:19:30.429Z,101062.88
2022-09-11T01:22:23.531Z,101076.84
2022-09-11T01:24:56.385Z,101077.13
2022-09-11T01:27:44.548Z,101084.97
2022-09-11T01:30:19.992Z,101089.75
2022-09-11T01:33:13.184Z,101085.59
2022-09-11T01:35:54.286Z,101083.47
2022-09-11T01:38:52.973Z,101087.94
2022-09-11T01:41:30.167Z,101097.88
2022-09-11T01:44:18.123Z,101098.16
2022-09-11T01:46:49.983Z,101102.72
2022-09-11T01:49:28.624Z,101101.00
2022-09-11T01:52:06.299Z,101101.59
2022-09-11T01:54:44.661Z,101108.50
2022-09-11T01:57:25.469Z,101119.50
2022-09-11T02:00:01.278Z,101115.56
2022-09-11T02:02:36.335Z,101124.22
2022-09-11T02:05:08.420Z,101131.66
2022-09-11T02:07:43.676Z,101130.31
2022-09-11T02:10:25.473Z,101130.44
2022-09-11T02:13:05.418Z,101132.44
2022-09-11T02:15:42.614Z,101128.16
2022-09-11T02:18:39.264Z,101122.84
2022-09-11T02:21:06.274Z,101123.59
2022-09-11T02:23:33.225Z,101127.44
2022-09-11T02:26:02.108Z,101127.88
2022-09-11T02:28:29.226Z,101121.03
2022-09-11T02:30:57.137Z,101127.28
2022-09-11T02:33:43.541Z,101131.28
2022-09-11T02:36:31.520Z,101136.16
2022-09-11T02:39:39.309Z,101138.31
2022-09-11T02:42:43.500Z,101134.22
2022-09-11T02:45:33.380Z,101137.66
2022-09-11T02:48:55.231Z,101131.09
2022-09-11T02:51:46.803Z,101140.56
2022-09-11T02:54:49.083Z,101137.47
2022-09-11T02:57:45.603Z,101133.78
2022-09-11T03:00:13.477Z,101134.03
2022-09-11T03:02:43.170Z,101136.34
2022-09-11T03:05:12.071Z,101146.19
2022-09-11T03:07:41.018Z,101144.47
2022-09-11T03:10:11.176Z,101139.63
2022-09-11T03:12:39.814Z,101148.22
2022-09-11T03:15:09.615Z,101149.50
2022-09-11T03:17:36.760Z,101145.91
2022-09-11T03:20:05.349Z,101144.63
2022-09-11T03:22:32.273Z,101153.22
2022-09-11T03:24:59.233Z,101166.34
2022-09-11T03:27:28.882Z,101161.78
2022-09-11T03:29:56.874Z,101167.19
2022-09-11T03:32:23.888Z,101159.19
2022-09-11T03:34:51.120Z,101162.75
2022-09-11T03:37:18.468Z,101157.22
2022-09-11T03:39:47.925Z,101163.84
2022-09-11T03:42:15.138Z,101165.44
2022-09-11T03:44:42.801Z,101165.44
2022-09-11T03:47:13.075Z,101165.59
2022-09-11T03:49:40.363Z,101172.31
2022-09-11T03:52:07.383Z,101170.47
2022-09-11T03:54:34.449Z,101168.16
2022-09-11T03:57:01.825Z,101173.56
2022-09-11T03:59:29.151Z,101172.22
2022-09-11T04:01:56.172Z,101178.53
2022-09-11T04:04:23.708Z,101185.41
2022-09-11T04:06:50.890Z,101180.97
2022-09-11T04:09:18.953Z,101185.56
2022-09-11T04:11:49.101Z,101182.22
2022-09-11T04:14:23.813Z,101185.66
2022-09-11T04:16:53.927Z,101200.06
2022-09-11T04:19:22.736Z,101197.25
2022-09-11T04:21:50.228Z,101201.28
2022-09-11T04:24:17.212Z,101196.84
2022-09-11T04:26:47.062Z,101200.28
2022-09-11T04:29:28.544Z,101187.00
2022-09-11T04:31:57.000Z,101186.28
2022-09-11T04:34:27.724Z,101192.16
2022-09-11T04:36:56.138Z,101187.56
2022-09-11T04:39:23.620Z,101200.88
2022-09-11T04:41:50.606Z,101205.16
2022-09-11T04:44:17.620Z,101195.91
2022-09-11T04:46:45.426Z,101197.63
2022-09-11T04:49:12.701Z,101206.50
2022-09-11T04:51:40.642Z,101214.47
2022-09-11T04:54:16.007Z,101199.22
2022-09-11T04:56:43.047Z,101207.38
2022-09-11T04:59:23.351Z,101209.06
2022-09-11T05:02:04.297Z,101210.09
2022-09-11T05:04:31.474Z,101208.06
2022-09-11T05:07:01.890Z,101212.25
2022-09-11T05:09:29.706Z,101216.94
2022-09-11T05:11:58.355Z,101218.06
2022-09-11T05:14:30.116Z,101224.09
2022-09-11T05:16:57.235Z,101218.66
2022-09-11T05:19:25.888Z,101230.25
2022-09-11T05:21:53.043Z,101222.22
2022-09-11T05:24:20.338Z,101222.09
2022-09-11T05:26:47.418Z,101230.34
2022-09-11T05:29:16.181Z,101244.41
2022-09-11T05:31:58.892Z,101246.97
2022-09-11T05:34:28.723Z,101246.13
2022-09-11T05:36:59.941Z,101254.84
2022-09-11T05:39:30.003Z,101252.25
2022-09-11T05:41:57.924Z,101266.56
2022-09-11T05:44:30.996Z,101267.53
2022-09-11T05:46:58.744Z,101262.69
2022-09-11T05:49:25.774Z,101266.00
2022-09-11T05:51:52.843Z,101268.88
2022-09-11T05:54:19.907Z,101267.13
2022-09-11T05:56:47.815Z,101273.44
2022-09-11T05:59:21.734Z,101280.59
2022-09-11T06:01:50.455Z,101284.00
2022-09-11T06:04:40.261Z,101284.88
2022-09-11T06:07:08.460Z,101291.31
2022-09-11T06:09:36.197Z,101299.84
2022-09-11T06:12:03.555Z,101297.38
2022-09-11T06:14:30.697Z,101300.25
2022-09-11T06:16:57.797Z,101302.06
2022-09-11T06:19:26.459Z,101303.09
2022-09-11T06:21:53.550Z,101307.50
2022-09-11T06:24:28.219Z,101308.63
2022-09-11T06:26:56.496Z,101304.19
2022-09-11T06:29:24.768Z,101308.63
2022-09-11T06:31:51.837Z,101304.09
2022-09-11T06:34:22.994Z,101316.13
2022-09-11T06:36:52.287Z,101319.69
2022-09-11T06:39:20.476Z,101318.59
2022-09-11T06:41:47.659Z,101320.28
2022-09-11T06:44:15.448Z,101321.59
2022-09-11T06:46:42.660Z,101319.28
2022-09-11T06:49:10.712Z,101331.00
2022-09-11T06:51:57.913Z,101329.16
2022-09-11T06:54:25.796Z,101327.16
2022-09-11T06:56:53.300Z,101332.75
2022-09-11T06:59:23.883Z,101329.16
2022-09-11T07:01:51.796Z,101334.56
2022-09-11T07:04:18.900Z,101325.59
2022-09-11T07:06:48.287Z,101326.28
2022-09-11T07:09:16.274Z,101324.19
2022-09-11T07:11:49.292Z,101335.25
2022-09-11T07:14:21.356Z,101337.28
2022-09-11T07:16:53.086Z,101333.31
2022-09-11T07:19:20.091Z,101337.75
2022-09-11T07:21:47.007Z,101331.88
2022-09-11T07:24:14.000Z,101338.06
2022-09-11T07:26:43.809Z,101335.34
2022-09-11T07:29:19.321Z,101328.06
2022-09-11T07:31:47.759Z,101332.38
2022-09-11T07:34:15.932Z,101338.38
2022-09-11T07:36:44.610Z,101342.28
2022-09-11T07:39:12.508Z,101345.03
2022-09-11T07:41:51.472Z,101353.28
2022-09-11T07:44:24.504Z,101349.41
2022-09-11T07:46:53.011Z,101356.56
2022-09-11T07:49:20.287Z,101355.59
2022-09-11T07:51:47.442Z,101360.63
2022-09-11T07:54:21.761Z,101356.97
2022-09-11T07:56:49.527Z,101356.97
2022-09-11T07:59:18.100Z,101359.25
2022-09-11T08:01:47.062Z,101364.91
2022-09-11T08:04:16.271Z,101351.63
2022-09-11T08:06:44.066Z,101349.09
2022-09-11T08:09:17.419Z,101353.06
2022-09-11T08:11:50.250Z,101351.41
2022-09-11T08:14:18.875Z,101358.31
2022-09-11T08:16:48.941Z,101362.50
2022-09-11T08:19:20.781Z,101365.53
2022-09-11T08:21:52.988Z,101365.69
2022-09-11T08:24:21.397Z,101365.34
2022-09-11T08:26:51.040Z,101365.34
2022-09-11T08:29:19.447Z,101375.66
2022-09-11T08:31:47.660Z,101368.25
2022-09-11T08:34:16.014Z,101370.72
2022-09-11T08:36:43.142Z,101386.44
2022-09-11T08:39:11.176Z,101373.44
2022-09-11T08:42:00.106Z,101380.91
2022-09-11T08:44:38.968Z,101383.00
2022-09-11T08:47:25.420Z,101385.34
2022-09-11T08:50:24.634Z,101379.88
2022-09-11T08:52:54.167Z,101393.63
2022-09-11T08:55:43.865Z,101391.63
2022-09-11T08:58:47.469Z,101396.69
2022-09-11T09:01:36.195Z,101392.13
2022-09-11T09:04:41.034Z,101388.69
2022-09-11T09:07:27.869Z,101402.63
2022-09-11T09:10:15.288Z,101407.09
2022-09-11T09:12:53.223Z,101411.94
2022-09-11T09:15:32.710Z,101400.63
2022-09-11T09:18:05.701Z,101400.25
2022-09-11T09:20:40.260Z,101407.97
2022-09-11T09:23:33.076Z,101413.72
2022-09-11T09:26:01.378Z,101408.25
2022-09-11T09:28:44.522Z,101410.69
2022-09-11T09:31:15.661Z,101408.44
2022-09-11T09:33:56.642Z,101404.47
2022-09-11T09:36:39.311Z,101422.53
2022-09-11T09:39:14.661Z,101419.59
2022-09-11T09:42:39.670Z,101419.28
2022-09-11T09:45:42.718Z,101425.69
2022-09-11T09:48:11.605Z,101418.84
2022-09-11T09:50:42.057Z,101426.34
2022-09-11T09:53:38.625Z,101431.69
2022-09-11T09:56:06.251Z,101432.72
2022-09-11T09:58:40.936Z,101436.00
2022-09-11T10:01:53.984Z,101434.13
2022-09-11T10:04:30.249Z,101434.59
2022-09-11T10:07:12.215Z,101434.28
2022-09-11T10:09:47.113Z,101430.28
2022-09-11T10:12:20.715Z,101434.28
2022-09-11T10:15:02.077Z,101439.31
2022-09-11T10:17:32.343Z,101435.56
2022-09-11T10:20:18.565Z,101436.84
2022-09-11T10:22:46.698Z,101437.59
2022-09-11T10:25:27.914Z,101438.75
2022-09-11T10:28:17.366Z,101439.03
2022-09-11T10:30:59.388Z,101442.47
2022-09-11T10:33:31.778Z,101439.59
2022-09-11T10:36:02.107Z,101440.84
2022-09-11T10:38:44.868Z,101436.22
2022-09-11T10:41:14.935Z,101439.88
2022-09-11T10:43:47.564Z,101426.97
2022-09-11T10:46:41.086Z,101419.13
2022-09-11T10:49:21.952Z,101422.56
2022-09-11T10:52:19.573Z,101426.63
2022-09-11T10:55:15.670Z,101423.31
2022-09-11T10:57:52.493Z,101428.19
2022-09-11T11:00:30.739Z,101417.88
2022-09-11T11:03:17.645Z,101429.00
2022-09-11T11:06:29.349Z,101427.97
2022-09-11T11:09:07.965Z,101431.72
2022-09-11T11:12:03.774Z,101430.75
2022-09-11T11:15:07.976Z,101427.72
2022-09-11T11:18:07.619Z,101427.31
2022-09-11T11:20:49.832Z,101423.28
2022-09-11T11:23:29.204Z,101429.41
2022-09-11T11:26:01.720Z,101426.94
2022-09-11T11:28:50.441Z,101432.00
2022-09-11T11:32:04.055Z,101429.84
2022-09-11T11:34:46.893Z,101420.38
2022-09-11T11:37:24.896Z,101422.06
2022-09-11T11:40:09.721Z,101417.50
2022-09-11T11:42:58.207Z,101410.94
2022-09-11T11:45:44.903Z,101418.63
2022-09-11T11:48:28.590Z,101423.16
2022-09-11T11:51:03.347Z,101417.88
2022-09-11T11:53:59.770Z,101422.63
2022-09-11T11:56:38.163Z,101416.34
2022-09-11T11:59:40.157Z,101416.94
2022-09-11T12:02:09.910Z,101423.63
2022-09-11T12:05:01.038Z,101422.31
2022-09-11T12:07:32.643Z,101417.22
2022-09-11T12:10:01.999Z,101414.91
2022-09-11T12:12:48.856Z,101411.84
2022-09-11T12:15:23.948Z,101406.63
2022-09-11T12:18:23.904Z,101402.28
2022-09-11T12:20:51.620Z,101412.16
2022-09-11T12:23:30.776Z,101401.94
2022-09-11T12:26:23.315Z,101416.28
2022-09-11T12:29:18.884Z,101413.28
2022-09-11T12:32:23.765Z,101417.31
2022-09-11T12:34:58.699Z,101415.38
2022-09-11T12:37:38.011Z,101418.72
2022-09-11T12:40:20.236Z,101409.63
2022-09-11T12:42:57.817Z,101410.31
2022-09-11T12:45:38.750Z,101422.66
2022-09-11T12:48:26.029Z,101415.44
2022-09-11T12:50:57.921Z,101409.44
2022-09-11T12:53:32.605Z,101401.75
2022-09-11T12:56:07.498Z,101402.94
2022-09-11T12:58:44.462Z,101404.09
2022-09-11T13:01:12.568Z,101405.00
2022-09-11T13:04:12.128Z,101397.63
2022-09-11T13:06:51.963Z,101396.44
2022-09-11T13:09:29.299Z,101393.44
2022-09-11T13:12:26.273Z,101388.78
2022-09-11T13:14:57.691Z,101392.66
2022-09-11T13:17:30.374Z,101390.47
2022-09-11T13:20:20.795Z,101394.75
2022-09-11T13:22:48.974Z,101399.09
2022-09-11T13:25:22.010Z,101391.50
2022-09-11T13:28:00.012Z,101374.84
2022-09-11T13:30:27.696Z,101389.13
2022-09-11T13:33:09.394Z,101382.03
2022-09-11T13:35:40.661Z,101375.81
2022-09-11T13:38:17.063Z,101367.78
2022-09-11T13:41:00.074Z,101377.81
2022-09-11T13:43:46.409Z,101366.63
2022-09-11T13:46:16.490Z,101386.66
2022-09-11T13:48:46.739Z,101385.91
2022-09-11T13:51:20.346Z,101377.22
2022-09-11T13:54:04.004Z,101383.09
2022-09-11T13:56:47.680Z,101381.44
2022-09-11T13:59:42.400Z,101369.81
2022-09-11T14:02:22.494Z,101368.13
2022-09-11T14:04:54.449Z,101354.91
2022-09-11T14:07:26.715Z,101350.47
2022-09-11T14:10:07.831Z,101371.38
2022-09-11T14:12:51.308Z,101365.56
2022-09-11T14:15:39.836Z,101363.34
2022-09-11T14:18:26.298Z,101355.81
2022-09-11T14:20:55.129Z,101354.81
2022-09-11T14:23:28.704Z,101358.03
2022-09-11T14:26:16.946Z,101349.09
2022-09-11T14:28:54.726Z,101350.63
2022-09-11T14:31:37.404Z,101344.47
2022-09-11T14:34:28.097Z,101346.38
2022-09-11T14:37:11.183Z,101343.28
2022-09-11T14:39:48.381Z,101343.78
2022-09-11T14:42:22.832Z,101339.41
2022-09-11T14:44:50.824Z,101331.47
2022-09-11T14:47:27.960Z,101339.06
2022-09-11T14:49:57.588Z,101325.41
2022-09-11T14:52:28.300Z,101334.47
2022-09-11T14:54:56.686Z,101328.97
2022-09-11T14:57:27.801Z,101320.94
2022-09-11T14:59:54.870Z,101320.22
2022-09-11T15:02:28.090Z,101335.06
2022-09-11T15:04:57.936Z,101320.81
2022-09-11T15:07:27.398Z,101325.19
2022-09-11T15:09:55.252Z,101327.75
2022-09-11T15:12:23.567Z,101328.03
2022-09-11T15:14:59.091Z,101315.59
2022-09-11T15:17:31.798Z,101297.50
2022-09-11T15:20:00.750Z,101312.47
2022-09-11T15:22:28.432Z,101309.91
2022-09-11T15:24:56.608Z,101309.38
2022-09-11T15:27:25.337Z,101308.81
2022-09-11T15:29:53.373Z,101316.97
2022-09-11T15:32:21.280Z,101304.53
2022-09-11T15:34:48.317Z,101302.00
2022-09-11T15:37:18.771Z,101300.44
2022-09-11T15:39:45.952Z,101286.09
2022-09-11T15:42:13.471Z,101313.91
2022-09-11T15:44:40.487Z,101291.78
2022-09-11T15:47:07.767Z,101307.81
2022-09-11T15:49:44.490Z,101307.03
2022-09-11T15:52:11.645Z,101297.94
2022-09-11T15:54:38.654Z,101307.13
2022-09-11T15:57:06.279Z,101290.47
2022-09-11T15:59:33.669Z,101295.97
2022-09-11T16:02:00.848Z,101302.31
2022-09-11T16:04:32.203Z,101294.72
2022-09-11T16:06:59.647Z,101307.34
2022-09-11T16:09:31.077Z,101284.84
2022-09-11T16:12:00.551Z,101288.06
2022-09-11T16:14:34.413Z,101280.19
2022-09-11T16:17:05.498Z,101293.66
2022-09-11T16:19:33.058Z,101295.56
2022-09-11T16:22:02.807Z,101291.44
2022-09-11T16:24:33.387Z,101288.69
2022-09-11T16:27:01.658Z,101288.69
2022-09-11T16:29:51.232Z,101290.13
2022-09-11T16:32:28.306Z,101288.44
2022-09-11T16:34:57.853Z,101282.44
2022-09-11T16:37:25.911Z,101276.53
2022-09-11T16:39:59.707Z,101282.53
2022-09-11T16:42:27.162Z,101278.94
2022-09-11T16:44:54.629Z,101273.78
2022-09-11T16:47:21.876Z,101274.13
2022-09-11T16:50:06.289Z,101268.75
2022-09-11T16:52:37.455Z,101271.22
2022-09-11T16:55:07.057Z,101276.09
2022-09-11T16:57:34.587Z,101276.44
2022-09-11T17:00:02.065Z,101273.06
2022-09-11T17:02:29.007Z,101265.75
2022-09-11T17:04:55.982Z,101267.84
2022-09-11T17:07:23.881Z,101266.19
2022-09-11T17:09:50.922Z,101272.06
2022-09-11T17:12:18.224Z,101271.06
2022-09-11T17:14:45.475Z,101278.59
2022-09-11T17:17:12.761Z,101261.00
2022-09-11T17:19:39.736Z,101277.25
2022-09-11T17:22:08.493Z,101278.63
2022-09-11T17:24:35.881Z,101276.25
2022-09-11T17:27:02.844Z,101267.03
2022-09-11T17:29:29.871Z,101280.38
2022-09-11T17:32:16.640Z,101260.38
2022-09-11T17:34:43.883Z,101275.81
2022-09-11T17:37:10.822Z,101277.34
2022-09-11T17:39:38.115Z,101270.69
2022-09-11T17:42:11.006Z,101274.78
2022-09-11T17:44:41.474Z,101276.69
2022-09-11T17:47:09.154Z,101266.25
2022-09-11T17:49:36.341Z,101284.41
2022-09-11T17:52:03.728Z,101269.81
2022-09-11T17:54:31.057Z,101270.50
2022-09-11T17:56:58.535Z,101284.91
2022-09-11T17:59:25.707Z,101278.41
2022-09-11T18:01:52.738Z,101290.56
2022-09-11T18:04:20.268Z,101283.69
2022-09-11T18:06:47.255Z,101279.59
2022-09-11T18:09:19.735Z,101284.56
2022-09-11T18:11:50.347Z,101293.44
2022-09-11T18:14:18.844Z,101286.94
2022-09-11T18:16:47.921Z,101299.09
2022-09-11T18:19:17.978Z,101294.44
2022-09-11T18:21:49.812Z,101305.06
2022-09-11T18:24:21.276Z,101297.69
2022-09-11T18:26:51.653Z,101305.22
2022-09-11T18:29:20.583Z,101290.34
2022-09-11T18:31:51.924Z,101304.19
2022-09-11T18:34:24.351Z,101299.22
2022-09-11T18:36:51.737Z,101299.22
2022-09-11T18:39:21.066Z,101303.47
2022-09-11T18:41:49.587Z,101287.97
2022-09-11T18:44:20.002Z,101312.94
2022-09-11T18:46:48.361Z,101316.53
2022-09-11T18:49:16.685Z,101312.19
2022-09-11T18:51:43.923Z,101304.50
2022-09-11T18:54:17.313Z,101306.84
2022-09-11T18:56:45.500Z,101311.31
2022-09-11T18:59:13.511Z,101305.78
2022-09-11T19:01:41.335Z,101312.00
2022-09-11T19:04:14.295Z,101313.00
2022-09-11T19:06:41.456Z,101318.13
2022-09-11T19:09:13.433Z,101316.69
2022-09-11T19:11:41.173Z,101316.41
2022-09-11T19:14:11.739Z,101331.00
2022-09-11T19:16:39.504Z,101318.22
2022-09-11T19:19:07.608Z,101318.03
2022-09-11T19:21:35.473Z,101319.22
2022-09-11T19:24:02.773Z,101313.72
2022-09-11T19:26:41.852Z,101317.78
2022-09-11T19:29:09.626Z,101328.38
2022-09-11T19:31:39.222Z,101327.44
2022-09-11T19:34:08.068Z,101328.22
2022-09-11T19:36:36.065Z,101326.84
2022-09-11T19:39:05.081Z,101333.75
2022-09-11T19:41:37.259Z,101340.31
2022-09-11T19:44:06.709Z,101333.78
2022-09-11T19:46:35.658Z,101324.66
2022-09-11T19:49:04.293Z,101328.84
2022-09-11T19:51:37.314Z,101329.78
2022-09-11T19:54:05.743Z,101326.44
2022-09-11T19:56:35.563Z,101331.69
2022-09-11T19:59:04.013Z,101328.97
2022-09-11T20:01:31.373Z,101330.16
2022-09-11T20:04:00.575Z,101323.97
2022-09-11T20:06:32.298Z,101332.63
2022-09-11T20:09:27.353Z,101337.88
2022-09-11T20:11:47.457Z,101326.53
2022-09-11T20:14:14.507Z,101335.03
2022-09-11T20:16:41.637Z,101334.63
2022-09-11T20:19:10.085Z,101344.31
2022-09-11T20:21:37.582Z,101340.88
2022-09-11T20:24:06.366Z,101330.41
2022-09-11T20:26:33.794Z,101323.44
2022-09-11T20:29:08.146Z,101324.78
2022-09-11T20:31:46.295Z,101330.28
2022-09-11T20:34:14.039Z,101331.91
2022-09-11T20:36:40.979Z,101333.22
2022-09-11T20:39:07.964Z,101330.91
2022-09-11T20:41:35.788Z,101333.06
2022-09-11T20:44:04.205Z,101322.19
2022-09-11T20:46:31.229Z,101329.34
2022-09-11T20:49:00.016Z,101322.50
2022-09-11T20:51:28.073Z,101316.78
2022-09-11T20:53:56.173Z,101316.50
2022-09-11T20:56:24.087Z,101317.69
2022-09-11T20:58:52.010Z,101319.41
2022-09-11T21:01:22.690Z,101320.72
2022-09-11T21:03:56.360Z,101328.19
2022-09-11T21:06:27.295Z,101324.31
2022-09-11T21:09:06.795Z,101337.19
2022-09-11T21:11:35.760Z,101321.59
2022-09-11T21:14:02.786Z,101325.31
2022-09-11T21:16:29.935Z,101318.97
2022-09-11T21:18:59.693Z,101334.31
2022-09-11T21:21:28.951Z,101338.16
2022-09-11T21:23:58.854Z,101330.03
2022-09-11T21:26:28.523Z,101329.72
2022-09-11T21:29:01.036Z,101326.84
2022-09-11T21:31:28.534Z,101324.44
2022-09-11T21:33:55.460Z,101318.00
2022-09-11T21:36:22.553Z,101327.16
2022-09-11T21:38:49.586Z,101324.28
2022-09-11T21:41:16.634Z,101323.28
2022-09-11T21:43:43.931Z,101326.84
2022-09-11T21:46:11.038Z,101317.53
2022-09-11T21:48:40.876Z,101313.09
2022-09-11T21:51:13.153Z,101307.25
2022-09-11T21:53:43.825Z,101318.97
2022-09-11T21:56:26.509Z,101320.09
2022-09-11T21:58:54.989Z,101314.81
2022-09-11T22:01:23.822Z,101311.53
2022-09-11T22:03:51.762Z,101306.34
2022-09-11T22:06:20.354Z,101306.66
2022-09-11T22:08:47.395Z,101318.53
2022-09-11T22:11:16.071Z,101309.50
2022-09-11T22:13:43.457Z,101318.94
2022-09-11T22:16:13.890Z,101315.25
2022-09-11T22:18:41.734Z,101320.09
2022-09-11T22:21:10.321Z,101317.91
2022-09-11T22:23:38.434Z,101311.16
2022-09-11T22:26:09.682Z,101315.41
2022-09-11T22:28:37.857Z,101311.53
2022-09-11T22:31:13.383Z,101313.53
2022-09-11T22:33:41.839Z,101319.91
2022-09-11T22:36:18.612Z,101314.03
2022-09-11T22:38:47.064Z,101323.19
2022-09-11T22:41:14.011Z,101324.19
2022-09-11T22:43:41.149Z,101303.84
2022-09-11T22:46:08.361Z,101317.44
2022-09-11T22:48:35.951Z,101316.69
2022-09-11T22:51:02.885Z,101317.25
2022-09-11T22:53:30.231Z,101312.22
2022-09-11T22:55:58.797Z,101308.91
2022-09-11T22:58:26.267Z,101303.16
2022-09-11T23:00:55.077Z,101305.44
2022-09-11T23:03:22.358Z,101302.38
2022-09-11T23:06:17.101Z,101300.22
2022-09-11T23:08:46.814Z,101301.22
2022-09-11T23:11:16.966Z,101293.31
2022-09-11T23:13:44.546Z,101291.16
2022-09-11T23:16:18.346Z,101293.69
2022-09-11T23:18:45.969Z,101290.38
2022-09-11T23:21:13.861Z,101293.09
2022-09-11T23:23:42.444Z,101297.66
2022-09-11T23:26:14.083Z,101292.84
2022-09-11T23:28:41.262Z,101294.81
2022-09-11T23:31:21.179Z,101295.22
2022-09-11T23:33:48.717Z,101305.84
2022-09-11T23:36:16.895Z,101295.81
2022-09-11T23:38:46.206Z,101309.00
2022-09-11T23:41:14.279Z,101295.97
2022-09-11T23:43:42.048Z,101299.78
2022-09-11T23:46:09.470Z,101281.19
2022-09-11T23:48:36.490Z,101293.38
2022-09-11T23:51:03.902Z,101297.81
2022-09-11T23:53:31.469Z,101294.50
2022-09-11T23:55:58.566Z,101280.97
2022-09-11T23:58:25.728Z,101278.63
